This is the latest recevied weather packets stored in our database for station/object KF0FSA. If no packets are shown the sender has not sent any weather packets the latest 10 day(s).
| Time | Temp. | Humidity | Pressure | Rain* | Wind** | Luminosity | Snow |
|---|---|---|---|---|---|---|---|
| 1777726368 | 6.11° C | 56% | 965.5 hPa | 0 mm | - | 182 W/m² | - |
| 1777725468 | 5° C | 57% | 965.4 hPa | 0 mm | - | 139 W/m² | - |
| 1777724992 | 4.44° C | 58% | 965.6 hPa | 0 mm | - | 112 W/m² | - |
| 1777724570 | 4.44° C | 60% | 965.7 hPa | 0 mm | - | 100 W/m² | - |
| 1777724268 | 3.89° C | 62% | 965.7 hPa | 0 mm | - | 88 W/m² | - |
| 1777723369 | 3.33° C | 62% | 965.7 hPa | 0 mm | - | 55 W/m² | - |
| 1777723066 | 3.33° C | 63% | 965.7 hPa | 0 mm | - | 46 W/m² | - |
| 1777722163 | 2.22° C | 68% | 965.8 hPa | 0 mm | - | 20 W/m² | - |
| 1777721989 | 1.67° C | 68% | 965.7 hPa | 0 mm | - | 16 W/m² | - |
| 1777721563 | 1.67° C | 70% | 965.8 hPa | 0 mm | - | 12 W/m² | - |
| 1777721384 | 1.11° C | 71% | 965.8 hPa | 0 mm | - | 9 W/m² | - |
| 1777721084 | 1.11° C | 71% | 965.9 hPa | 0 mm | - | 5 W/m² | - |
| 1777720660 | 1.11° C | 71% | 965.9 hPa | 0 mm | - | 3 W/m² | - |
| 1777720361 | 1.11° C | 71% | 965.9 hPa | 0 mm | - | 2 W/m² | - |
| 1777720060 | 0.56° C | 72% | 965.9 hPa | 0 mm | - | 0 W/m² | - |
| 1777719773 | 0.56° C | 73% | 966 hPa | 0 mm | - | 0 W/m² | - |
| 1777719461 | 0.56° C | 73% | 966.1 hPa | 0 mm | - | 0 W/m² | - |
| 1777719161 | 0.56° C | 74% | 966 hPa | 0 mm | - | 0 W/m² | - |
| 1777718984 | 0° C | 74% | 966 hPa | 0 mm | - | 0 W/m² | - |
| 1777718561 | 0° C | 76% | 966.1 hPa | 0 mm | - | 0 W/m² | - |
| 1777718260 | 0° C | 76% | 966.1 hPa | 0 mm | - | 0 W/m² | - |
| 1777718085 | -0.56° C | 78% | 966.2 hPa | 0 mm | - | 0 W/m² | - |
| 1777717660 | -0.56° C | 77% | 966.2 hPa | 0 mm | - | 0 W/m² | - |
| 1777717360 | -0.56° C | 78% | 966.2 hPa | 0 mm | - | 0 W/m² | - |
| 1777717061 | -0.56° C | 78% | 966.3 hPa | 0 mm | - | 0 W/m² | - |
* Rain latest hour (hover to see other rain measurements)
** Current wind speed in m/s (hover to see current wind gust speed)